sensor_id;sensor_type;location;lat;lon;timestamp;pressure;altitude;pressure_sealevel;temperature;humidity
6134;BME280;3098;42.678;23.364;2022-09-21T00:00:40;95055.97;;;8.14;100.00
6134;BME280;3098;42.678;23.364;2022-09-21T00:03:08;95054.75;;;8.06;100.00
6134;BME280;3098;42.678;23.364;2022-09-21T00:05:36;95001.88;;;7.60;100.00
6134;BME280;3098;42.678;23.364;2022-09-21T00:08:06;95033.94;;;7.67;100.00
6134;BME280;3098;42.678;23.364;2022-09-21T00:10:34;95044.81;;;7.66;100.00
6134;BME280;3098;42.678;23.364;2022-09-21T00:13:02;94984.09;;;7.28;100.00
6134;BME280;3098;42.678;23.364;2022-09-21T00:15:30;95062.19;;;7.67;100.00
6134;BME280;3098;42.678;23.364;2022-09-21T00:17:58;95056.00;;;7.58;100.00
6134;BME280;3098;42.678;23.364;2022-09-21T00:20:27;94991.88;;;6.96;100.00
6134;BME280;3098;42.678;23.364;2022-09-21T00:22:54;95065.16;;;7.23;100.00
6134;BME280;3098;42.678;23.364;2022-09-21T00:25:22;95054.59;;;7.23;100.00
6134;BME280;3098;42.678;23.364;2022-09-21T00:27:50;95061.09;;;7.30;100.00
6134;BME280;3098;42.678;23.364;2022-09-21T00:30:17;95039.44;;;7.10;100.00
6134;BME280;3098;42.678;23.364;2022-09-21T00:32:44;95000.72;;;6.86;100.00
6134;BME280;3098;42.678;23.364;2022-09-21T00:35:12;95056.06;;;7.10;100.00
6134;BME280;3098;42.678;23.364;2022-09-21T00:37:38;95048.28;;;7.00;100.00
6134;BME280;3098;42.678;23.364;2022-09-21T00:40:06;95012.28;;;6.67;100.00
6134;BME280;3098;42.678;23.364;2022-09-21T00:42:35;95027.00;;;6.68;100.00
6134;BME280;3098;42.678;23.364;2022-09-21T00:45:03;95062.72;;;6.79;100.00
6134;BME280;3098;42.678;23.364;2022-09-21T00:47:32;95008.56;;;6.44;100.00
6134;BME280;3098;42.678;23.364;2022-09-21T00:50:05;95019.81;;;6.50;100.00
6134;BME280;3098;42.678;23.364;2022-09-21T00:52:36;95049.72;;;6.64;100.00
6134;BME280;3098;42.678;23.364;2022-09-21T00:55:10;94965.44;;;6.06;100.00
6134;BME280;3098;42.678;23.364;2022-09-21T00:57:41;94950.94;;;6.09;100.00
6134;BME280;3098;42.678;23.364;2022-09-21T01:00:10;94980.84;;;6.47;100.00
6134;BME280;3098;42.678;23.364;2022-09-21T01:02:37;95048.28;;;7.00;100.00
6134;BME280;3098;42.678;23.364;2022-09-21T01:05:06;95040.69;;;6.93;100.00
6134;BME280;3098;42.678;23.364;2022-09-21T01:07:35;95033.13;;;6.87;100.00
6134;BME280;3098;42.678;23.364;2022-09-21T01:10:06;95046.69;;;6.99;100.00
6134;BME280;3098;42.678;23.364;2022-09-21T01:12:49;95037.09;;;6.84;100.00
6134;BME280;3098;42.678;23.364;2022-09-21T01:15:27;94940.16;;;6.34;100.00
6134;BME280;3098;42.678;23.364;2022-09-21T01:18:02;95057.06;;;6.90;100.00
6134;BME280;3098;42.678;23.364;2022-09-21T01:20:53;95046.47;;;6.95;100.00
6134;BME280;3098;42.678;23.364;2022-09-21T01:23:38;95035.00;;;6.86;100.00
6134;BME280;3098;42.678;23.364;2022-09-21T01:26:14;95046.69;;;6.99;100.00
6134;BME280;3098;42.678;23.364;2022-09-21T01:29:11;94914.81;;;6.14;100.00
6134;BME280;3098;42.678;23.364;2022-09-21T01:31:46;95040.03;;;6.83;100.00
6134;BME280;3098;42.678;23.364;2022-09-21T01:34:21;94935.09;;;6.14;100.00
6134;BME280;3098;42.678;23.364;2022-09-21T01:36:52;95028.03;;;6.72;100.00
6134;BME280;3098;42.678;23.364;2022-09-21T01:39:22;94953.81;;;6.36;100.00
6134;BME280;3098;42.678;23.364;2022-09-21T01:41:51;94939.19;;;6.25;100.00
6134;BME280;3098;42.678;23.364;2022-09-21T01:44:23;95023.91;;;6.84;100.00
6134;BME280;3098;42.678;23.364;2022-09-21T01:46:52;94998.97;;;6.77;100.00
6134;BME280;3098;42.678;23.364;2022-09-21T01:49:24;95042.22;;;7.00;100.00
6134;BME280;3098;42.678;23.364;2022-09-21T01:51:56;95026.31;;;7.05;100.00
6134;BME280;3098;42.678;23.364;2022-09-21T01:54:27;95009.16;;;7.07;100.00
6134;BME280;3098;42.678;23.364;2022-09-21T01:57:04;95015.50;;;7.06;100.00
6134;BME280;3098;42.678;23.364;2022-09-21T01:59:41;95016.88;;;7.04;100.00
6134;BME280;3098;42.678;23.364;2022-09-21T02:02:17;95031.66;;;7.00;100.00
6134;BME280;3098;42.678;23.364;2022-09-21T02:04:45;94983.13;;;6.53;100.00
6134;BME280;3098;42.678;23.364;2022-09-21T02:07:14;95025.81;;;7.03;100.00
6134;BME280;3098;42.678;23.364;2022-09-21T02:09:42;95024.19;;;7.07;100.00
6134;BME280;3098;42.678;23.364;2022-09-21T02:12:09;95023.53;;;6.96;100.00
6134;BME280;3098;42.678;23.364;2022-09-21T02:14:37;95001.91;;;6.75;100.00
6134;BME280;3098;42.678;23.364;2022-09-21T02:17:16;95026.91;;;6.78;100.00
6134;BME280;3098;42.678;23.364;2022-09-21T02:19:56;95003.78;;;6.70;100.00
6134;BME280;3098;42.678;23.364;2022-09-21T02:22:31;95001.16;;;6.70;100.00
6134;BME280;3098;42.678;23.364;2022-09-21T02:25:06;95035.31;;;6.80;100.00
6134;BME280;3098;42.678;23.364;2022-09-21T02:27:37;95035.94;;;6.72;100.00
6134;BME280;3098;42.678;23.364;2022-09-21T02:30:10;94920.75;;;6.01;100.00
6134;BME280;3098;42.678;23.364;2022-09-21T02:32:44;94934.41;;;6.03;100.00
6134;BME280;3098;42.678;23.364;2022-09-21T02:35:22;95032.28;;;6.68;100.00
6134;BME280;3098;42.678;23.364;2022-09-21T02:37:58;95042.38;;;6.61;100.00
6134;BME280;3098;42.678;23.364;2022-09-21T02:40:35;95036.19;;;6.70;100.00
6134;BME280;3098;42.678;23.364;2022-09-21T02:43:08;95034.47;;;6.61;100.00
6134;BME280;3098;42.678;23.364;2022-09-21T02:45:41;95032.47;;;6.48;100.00
6134;BME280;3098;42.678;23.364;2022-09-21T02:48:13;95026.22;;;6.38;100.00
6134;BME280;3098;42.678;23.364;2022-09-21T02:50:46;95012.53;;;6.13;100.00
6134;BME280;3098;42.678;23.364;2022-09-21T02:53:17;95045.88;;;6.22;100.00
6134;BME280;3098;42.678;23.364;2022-09-21T02:55:46;95035.28;;;6.27;100.00
6134;BME280;3098;42.678;23.364;2022-09-21T02:58:17;95033.19;;;6.29;100.00
6134;BME280;3098;42.678;23.364;2022-09-21T03:00:47;94834.44;;;5.07;100.00
6134;BME280;3098;42.678;23.364;2022-09-21T03:03:16;95043.56;;;6.45;100.00
6134;BME280;3098;42.678;23.364;2022-09-21T03:05:46;95036.25;;;6.36;100.00
6134;BME280;3098;42.678;23.364;2022-09-21T03:08:15;95046.31;;;6.34;100.00
6134;BME280;3098;42.678;23.364;2022-09-21T03:10:43;95044.41;;;6.40;100.00
6134;BME280;3098;42.678;23.364;2022-09-21T03:13:10;95022.22;;;6.17;100.00
6134;BME280;3098;42.678;23.364;2022-09-21T03:15:38;95042.69;;;6.25;100.00
6134;BME280;3098;42.678;23.364;2022-09-21T03:18:08;95041.59;;;6.31;100.00
6134;BME280;3098;42.678;23.364;2022-09-21T03:20:36;95043.72;;;6.29;100.00
6134;BME280;3098;42.678;23.364;2022-09-21T03:23:03;95001.41;;;5.87;100.00
6134;BME280;3098;42.678;23.364;2022-09-21T03:25:31;94978.34;;;5.69;100.00
6134;BME280;3098;42.678;23.364;2022-09-21T03:27:58;95044.47;;;6.01;100.00
6134;BME280;3098;42.678;23.364;2022-09-21T03:30:26;95043.41;;;6.02;100.00
6134;BME280;3098;42.678;23.364;2022-09-21T03:32:54;94980.78;;;5.60;100.00
6134;BME280;3098;42.678;23.364;2022-09-21T03:35:23;95013.59;;;5.73;100.00
6134;BME280;3098;42.678;23.364;2022-09-21T03:37:51;95026.81;;;5.63;100.00
6134;BME280;3098;42.678;23.364;2022-09-21T03:40:19;95012.69;;;5.49;100.00
6134;BME280;3098;42.678;23.364;2022-09-21T03:42:46;95037.34;;;5.63;100.00
6134;BME280;3098;42.678;23.364;2022-09-21T03:45:13;95055.72;;;5.73;100.00
6134;BME280;3098;42.678;23.364;2022-09-21T03:47:41;95043.34;;;5.68;100.00
6134;BME280;3098;42.678;23.364;2022-09-21T03:50:09;95022.97;;;5.50;100.00
6134;BME280;3098;42.678;23.364;2022-09-21T03:52:38;95038.13;;;5.63;100.00
6134;BME280;3098;42.678;23.364;2022-09-21T03:55:07;95051.19;;;5.78;100.00
6134;BME280;3098;42.678;23.364;2022-09-21T03:57:35;94958.44;;;5.19;100.00
6134;BME280;3098;42.678;23.364;2022-09-21T04:00:04;95052.78;;;5.74;100.00
6134;BME280;3098;42.678;23.364;2022-09-21T04:02:33;95038.59;;;5.75;100.00
6134;BME280;3098;42.678;23.364;2022-09-21T04:05:01;95014.66;;;5.72;100.00
6134;BME280;3098;42.678;23.364;2022-09-21T04:07:30;95054.31;;;5.86;100.00
6134;BME280;3098;42.678;23.364;2022-09-21T04:09:59;95034.19;;;5.61;100.00
6134;BME280;3098;42.678;23.364;2022-09-21T04:12:27;95041.59;;;5.59;100.00
6134;BME280;3098;42.678;23.364;2022-09-21T04:14:54;95003.56;;;5.36;100.00
6134;BME280;3098;42.678;23.364;2022-09-21T04:17:21;95059.44;;;5.67;100.00
6134;BME280;3098;42.678;23.364;2022-09-21T04:19:48;95052.75;;;5.85;100.00
6134;BME280;3098;42.678;23.364;2022-09-21T04:22:15;95054.72;;;6.03;100.00
6134;BME280;3098;42.678;23.364;2022-09-21T04:24:43;95058.78;;;6.24;100.00
6134;BME280;3098;42.678;23.364;2022-09-21T04:27:12;95027.91;;;6.01;100.00
6134;BME280;3098;42.678;23.364;2022-09-21T04:29:39;95061.13;;;6.25;100.00
6134;BME280;3098;42.678;23.364;2022-09-21T04:32:06;95062.72;;;6.26;100.00
6134;BME280;3098;42.678;23.364;2022-09-21T04:34:34;94982.63;;;5.99;100.00
6134;BME280;3098;42.678;23.364;2022-09-21T04:37:01;94977.38;;;5.99;100.00
6134;BME280;3098;42.678;23.364;2022-09-21T04:39:28;95055.72;;;6.69;100.00
6134;BME280;3098;42.678;23.364;2022-09-21T04:41:56;95053.31;;;6.73;100.00
6134;BME280;3098;42.678;23.364;2022-09-21T04:44:25;94989.94;;;6.35;100.00
6134;BME280;3098;42.678;23.364;2022-09-21T04:46:52;95058.28;;;7.03;100.00
6134;BME280;3098;42.678;23.364;2022-09-21T04:49:19;94992.50;;;6.64;100.00
6134;BME280;3098;42.678;23.364;2022-09-21T04:51:46;94913.75;;;6.15;100.00
6134;BME280;3098;42.678;23.364;2022-09-21T04:54:14;95068.13;;;7.16;100.00
6134;BME280;3098;42.678;23.364;2022-09-21T04:56:41;95072.28;;;7.22;100.00
6134;BME280;3098;42.678;23.364;2022-09-21T04:59:08;95047.50;;;7.00;100.00
6134;BME280;3098;42.678;23.364;2022-09-21T05:01:37;95062.03;;;6.97;100.00
6134;BME280;3098;42.678;23.364;2022-09-21T05:04:05;95079.75;;;6.91;100.00
6134;BME280;3098;42.678;23.364;2022-09-21T05:06:33;95025.31;;;6.53;100.00
6134;BME280;3098;42.678;23.364;2022-09-21T05:09:00;95061.84;;;6.88;100.00
6134;BME280;3098;42.678;23.364;2022-09-21T05:11:45;95063.59;;;6.98;100.00
6134;BME280;3098;42.678;23.364;2022-09-21T05:14:13;95064.50;;;7.12;100.00
6134;BME280;3098;42.678;23.364;2022-09-21T05:16:41;94939.69;;;6.51;100.00
6134;BME280;3098;42.678;23.364;2022-09-21T05:19:09;95073.41;;;7.59;100.00
6134;BME280;3098;42.678;23.364;2022-09-21T05:21:36;95044.16;;;7.55;100.00
6134;BME280;3098;42.678;23.364;2022-09-21T05:24:04;95080.47;;;8.00;100.00
6134;BME280;3098;42.678;23.364;2022-09-21T05:26:31;95075.00;;;9.35;100.00
6134;BME280;3098;42.678;23.364;2022-09-21T05:28:58;95071.31;;;10.65;96.62
6134;BME280;3098;42.678;23.364;2022-09-21T05:31:38;95053.84;;;10.73;92.68
6134;BME280;3098;42.678;23.364;2022-09-21T05:34:20;95062.22;;;11.76;88.28
6134;BME280;3098;42.678;23.364;2022-09-21T05:36:57;95068.28;;;11.20;87.89
6134;BME280;3098;42.678;23.364;2022-09-21T05:39:27;95069.84;;;12.80;83.50
6134;BME280;3098;42.678;23.364;2022-09-21T05:41:55;95077.91;;;13.18;79.47
6134;BME280;3098;42.678;23.364;2022-09-21T05:44:22;95085.56;;;13.57;76.68
6134;BME280;3098;42.678;23.364;2022-09-21T05:46:55;95020.97;;;13.81;75.40
6134;BME280;3098;42.678;23.364;2022-09-21T05:49:37;95053.19;;;15.04;69.88
6134;BME280;3098;42.678;23.364;2022-09-21T05:52:12;95061.03;;;14.88;68.96
6134;BME280;3098;42.678;23.364;2022-09-21T05:54:54;95051.22;;;15.61;68.26
6134;BME280;3098;42.678;23.364;2022-09-21T05:57:35;95070.63;;;14.15;70.25
6134;BME280;3098;42.678;23.364;2022-09-21T06:00:13;95056.28;;;12.56;77.37
6134;BME280;3098;42.678;23.364;2022-09-21T06:02:53;95056.16;;;12.09;80.21
6134;BME280;3098;42.678;23.364;2022-09-21T06:05:25;95027.94;;;11.48;83.84
6134;BME280;3098;42.678;23.364;2022-09-21T06:07:52;95081.59;;;11.76;83.50
6134;BME280;3098;42.678;23.364;2022-09-21T06:10:19;95080.31;;;11.65;84.16
6134;BME280;3098;42.678;23.364;2022-09-21T06:12:48;95081.44;;;11.81;85.74
6134;BME280;3098;42.678;23.364;2022-09-21T06:15:15;95070.38;;;11.88;83.92
6134;BME280;3098;42.678;23.364;2022-09-21T06:17:43;95083.22;;;11.94;84.83
6134;BME280;3098;42.678;23.364;2022-09-21T06:20:10;95080.22;;;12.39;83.08
6134;BME280;3098;42.678;23.364;2022-09-21T06:22:39;95061.16;;;12.02;83.16
6134;BME280;3098;42.678;23.364;2022-09-21T06:25:07;95058.59;;;12.66;81.34
6134;BME280;3098;42.678;23.364;2022-09-21T06:27:34;95093.72;;;13.06;79.92
6134;BME280;3098;42.678;23.364;2022-09-21T06:30:01;95045.41;;;13.33;79.27
6134;BME280;3098;42.678;23.364;2022-09-21T06:32:28;95096.88;;;14.87;74.92
6134;BME280;3098;42.678;23.364;2022-09-21T06:34:56;95073.25;;;15.94;69.63
6134;BME280;3098;42.678;23.364;2022-09-21T06:37:23;95099.34;;;15.97;68.57
6134;BME280;3098;42.678;23.364;2022-09-21T06:39:52;95074.06;;;15.95;68.26
6134;BME280;3098;42.678;23.364;2022-09-21T06:42:20;95098.88;;;15.95;68.17
6134;BME280;3098;42.678;23.364;2022-09-21T06:44:47;95089.63;;;16.57;64.85
6134;BME280;3098;42.678;23.364;2022-09-21T06:47:14;95093.72;;;16.66;66.77
6134;BME280;3098;42.678;23.364;2022-09-21T06:49:42;95099.06;;;17.53;62.44
6134;BME280;3098;42.678;23.364;2022-09-21T06:52:09;95105.41;;;18.46;59.62
6134;BME280;3098;42.678;23.364;2022-09-21T06:54:36;95092.22;;;18.76;57.65
6134;BME280;3098;42.678;23.364;2022-09-21T06:57:05;95113.22;;;18.89;56.76
6134;BME280;3098;42.678;23.364;2022-09-21T06:59:32;95107.28;;;18.80;57.27
6134;BME280;3098;42.678;23.364;2022-09-21T07:01:59;95095.94;;;19.52;54.45
6134;BME280;3098;42.678;23.364;2022-09-21T07:04:28;95077.03;;;19.97;53.81
6134;BME280;3098;42.678;23.364;2022-09-21T07:06:56;95043.34;;;18.32;55.77
6134;BME280;3098;42.678;23.364;2022-09-21T07:09:23;95084.34;;;18.48;56.55
6134;BME280;3098;42.678;23.364;2022-09-21T07:11:51;95091.06;;;18.38;57.20
6134;BME280;3098;42.678;23.364;2022-09-21T07:14:20;95103.88;;;17.32;60.47
6134;BME280;3098;42.678;23.364;2022-09-21T07:16:49;95101.03;;;17.41;61.30
6134;BME280;3098;42.678;23.364;2022-09-21T07:19:16;95027.53;;;16.39;63.55
6134;BME280;3098;42.678;23.364;2022-09-21T07:21:44;94949.28;;;15.38;65.01
6134;BME280;3098;42.678;23.364;2022-09-21T07:24:12;95103.72;;;16.82;63.92
6134;BME280;3098;42.678;23.364;2022-09-21T07:26:40;95035.47;;;15.96;65.80
6134;BME280;3098;42.678;23.364;2022-09-21T07:29:09;95099.16;;;16.30;66.28
6134;BME280;3098;42.678;23.364;2022-09-21T07:31:37;94960.22;;;15.21;66.62
6134;BME280;3098;42.678;23.364;2022-09-21T07:34:04;94965.56;;;15.21;67.35
6134;BME280;3098;42.678;23.364;2022-09-21T07:36:31;95072.38;;;15.78;67.77
6134;BME280;3098;42.678;23.364;2022-09-21T07:38:58;95101.16;;;15.69;69.16
6134;BME280;3098;42.678;23.364;2022-09-21T07:41:26;95102.88;;;15.29;71.23
6134;BME280;3098;42.678;23.364;2022-09-21T07:43:53;95086.69;;;15.13;71.51
6134;BME280;3098;42.678;23.364;2022-09-21T07:46:20;95094.16;;;14.75;72.96
6134;BME280;3098;42.678;23.364;2022-09-21T07:48:52;95045.44;;;14.78;72.94
6134;BME280;3098;42.678;23.364;2022-09-21T07:51:19;95100.69;;;15.10;73.41
6134;BME280;3098;42.678;23.364;2022-09-21T07:53:46;95107.06;;;14.73;73.83
6134;BME280;3098;42.678;23.364;2022-09-21T07:56:15;95104.28;;;14.49;74.50
6134;BME280;3098;42.678;23.364;2022-09-21T07:58:43;95109.97;;;14.80;74.47
6134;BME280;3098;42.678;23.364;2022-09-21T08:01:28;95049.84;;;15.19;71.75
6134;BME280;3098;42.678;23.364;2022-09-21T08:03:58;94956.63;;;14.24;72.72
6134;BME280;3098;42.678;23.364;2022-09-21T08:06:27;95097.50;;;15.17;71.50
6134;BME280;3098;42.678;23.364;2022-09-21T08:08:56;95093.41;;;15.31;71.99
6134;BME280;3098;42.678;23.364;2022-09-21T08:11:25;95098.88;;;15.35;69.98
6134;BME280;3098;42.678;23.364;2022-09-21T08:13:56;95081.09;;;15.51;68.86
6134;BME280;3098;42.678;23.364;2022-09-21T08:16:24;95104.59;;;15.01;71.04
6134;BME280;3098;42.678;23.364;2022-09-21T08:18:51;95098.97;;;15.38;70.29
6134;BME280;3098;42.678;23.364;2022-09-21T08:21:20;95095.25;;;15.64;69.15
6134;BME280;3098;42.678;23.364;2022-09-21T08:23:48;95079.19;;;15.64;67.47
6134;BME280;3098;42.678;23.364;2022-09-21T08:26:16;95066.88;;;15.99;66.21
6134;BME280;3098;42.678;23.364;2022-09-21T08:28:45;95074.38;;;17.16;63.09
6134;BME280;3098;42.678;23.364;2022-09-21T08:31:15;94992.09;;;16.30;63.34
6134;BME280;3098;42.678;23.364;2022-09-21T08:33:44;95088.81;;;16.17;65.23
6134;BME280;3098;42.678;23.364;2022-09-21T08:36:11;95079.72;;;16.05;65.06
6134;BME280;3098;42.678;23.364;2022-09-21T08:38:40;95051.09;;;16.34;63.56
6134;BME280;3098;42.678;23.364;2022-09-21T08:41:14;95088.34;;;16.94;61.32
6134;BME280;3098;42.678;23.364;2022-09-21T08:43:44;95093.78;;;16.54;62.11
6134;BME280;3098;42.678;23.364;2022-09-21T08:46:16;95062.09;;;16.72;60.19
6134;BME280;3098;42.678;23.364;2022-09-21T08:48:47;95078.50;;;16.43;60.56
6134;BME280;3098;42.678;23.364;2022-09-21T08:51:20;95081.44;;;16.93;60.59
6134;BME280;3098;42.678;23.364;2022-09-21T08:53:51;95079.44;;;17.65;59.14
6134;BME280;3098;42.678;23.364;2022-09-21T08:56:20;95062.50;;;17.96;57.15
6134;BME280;3098;42.678;23.364;2022-09-21T08:58:49;95072.34;;;17.57;57.02
6134;BME280;3098;42.678;23.364;2022-09-21T09:01:30;95068.50;;;17.11;58.19
6134;BME280;3098;42.678;23.364;2022-09-21T09:04:21;95051.38;;;17.15;56.56
6134;BME280;3098;42.678;23.364;2022-09-21T09:07:03;95041.09;;;17.02;56.92
6134;BME280;3098;42.678;23.364;2022-09-21T09:09:44;95017.00;;;16.19;58.95
6134;BME280;3098;42.678;23.364;2022-09-21T09:12:28;95058.47;;;16.64;59.74
6134;BME280;3098;42.678;23.364;2022-09-21T09:17:51;95056.06;;;16.47;58.76
6134;BME280;3098;42.678;23.364;2022-09-21T09:20:25;94969.63;;;15.91;57.68
6134;BME280;3098;42.678;23.364;2022-09-21T09:23:02;95048.97;;;16.27;59.32
6134;BME280;3098;42.678;23.364;2022-09-21T09:25:35;95006.78;;;15.57;61.37
6134;BME280;3098;42.678;23.364;2022-09-21T09:28:22;95052.06;;;15.89;61.47
6134;BME280;3098;42.678;23.364;2022-09-21T09:30:55;95041.50;;;15.93;59.29
6134;BME280;3098;42.678;23.364;2022-09-21T09:33:26;95040.50;;;15.85;59.69
6134;BME280;3098;42.678;23.364;2022-09-21T09:35:59;95042.00;;;16.50;57.94
6134;BME280;3098;42.678;23.364;2022-09-21T09:38:32;94994.19;;;16.37;57.27
6134;BME280;3098;42.678;23.364;2022-09-21T09:41:19;95013.50;;;16.30;58.23
6134;BME280;3098;42.678;23.364;2022-09-21T09:44:00;95031.16;;;17.65;56.33
6134;BME280;3098;42.678;23.364;2022-09-21T09:46:35;94972.69;;;17.23;54.94
6134;BME280;3098;42.678;23.364;2022-09-21T09:49:15;95005.06;;;18.16;51.11
6134;BME280;3098;42.678;23.364;2022-09-21T09:51:48;95029.72;;;18.21;50.20
6134;BME280;3098;42.678;23.364;2022-09-21T09:54:17;95023.72;;;18.47;49.18
6134;BME280;3098;42.678;23.364;2022-09-21T09:56:49;95020.53;;;19.03;48.43
6134;BME280;3098;42.678;23.364;2022-09-21T09:59:24;94992.16;;;18.25;47.53
6134;BME280;3098;42.678;23.364;2022-09-21T10:02:00;94934.69;;;18.90;46.63
6134;BME280;3098;42.678;23.364;2022-09-21T10:04:28;94989.84;;;19.30;46.01
6134;BME280;3098;42.678;23.364;2022-09-21T10:06:55;95005.75;;;18.13;48.49
6134;BME280;3098;42.678;23.364;2022-09-21T10:09:24;94964.75;;;17.11;52.02
6134;BME280;3098;42.678;23.364;2022-09-21T10:11:55;95000.44;;;16.69;54.28
6134;BME280;3098;42.678;23.364;2022-09-21T10:14:24;94997.03;;;16.28;55.60
6134;BME280;3098;42.678;23.364;2022-09-21T10:16:54;94982.72;;;16.08;55.09
6134;BME280;3098;42.678;23.364;2022-09-21T10:19:24;94911.72;;;15.71;54.30
6134;BME280;3098;42.678;23.364;2022-09-21T10:21:55;94988.00;;;15.81;55.94
6134;BME280;3098;42.678;23.364;2022-09-21T10:24:27;94997.66;;;16.81;54.39
6134;BME280;3098;42.678;23.364;2022-09-21T10:27:04;94994.63;;;17.95;51.44
6134;BME280;3098;42.678;23.364;2022-09-21T10:29:42;94960.72;;;18.64;47.99
6134;BME280;3098;42.678;23.364;2022-09-21T10:32:21;94990.84;;;18.96;47.80
6134;BME280;3098;42.678;23.364;2022-09-21T10:35:14;94927.91;;;19.23;44.91
6134;BME280;3098;42.678;23.364;2022-09-21T10:37:45;94979.22;;;20.45;42.90
6134;BME280;3098;42.678;23.364;2022-09-21T10:40:23;94957.28;;;20.47;42.58
6134;BME280;3098;42.678;23.364;2022-09-21T10:42:53;94939.63;;;20.20;41.71
6134;BME280;3098;42.678;23.364;2022-09-21T10:45:24;94966.97;;;20.55;40.90
6134;BME280;3098;42.678;23.364;2022-09-21T10:47:55;94824.72;;;18.33;42.26
6134;BME280;3098;42.678;23.364;2022-09-21T10:50:25;94903.59;;;16.82;45.04
6134;BME280;3098;42.678;23.364;2022-09-21T10:52:59;94919.41;;;17.38;46.09
6134;BME280;3098;42.678;23.364;2022-09-21T10:55:28;94971.81;;;19.79;41.66
6134;BME280;3098;42.678;23.364;2022-09-21T10:58:00;94970.75;;;20.84;36.83
6134;BME280;3098;42.678;23.364;2022-09-21T11:00:39;94937.72;;;20.94;36.30
6134;BME280;3098;42.678;23.364;2022-09-21T11:03:34;94963.59;;;21.46;35.84
6134;BME280;3098;42.678;23.364;2022-09-21T11:06:08;94962.63;;;21.17;36.78
6134;BME280;3098;42.678;23.364;2022-09-21T11:08:42;94954.91;;;20.79;37.26
6134;BME280;3098;42.678;23.364;2022-09-21T11:11:24;94937.84;;;20.31;37.62
6134;BME280;3098;42.678;23.364;2022-09-21T11:14:00;94942.50;;;20.71;38.14
6134;BME280;3098;42.678;23.364;2022-09-21T11:16:34;94894.34;;;18.87;39.64
6134;BME280;3098;42.678;23.364;2022-09-21T11:19:10;94773.75;;;16.95;41.45
6134;BME280;3098;42.678;23.364;2022-09-21T11:21:49;94884.34;;;17.46;42.83
6134;BME280;3098;42.678;23.364;2022-09-21T11:24:23;94916.56;;;17.31;42.15
6134;BME280;3098;42.678;23.364;2022-09-21T11:26:58;94939.34;;;17.91;42.39
6134;BME280;3098;42.678;23.364;2022-09-21T11:29:34;94849.31;;;17.55;40.23
6134;BME280;3098;42.678;23.364;2022-09-21T11:32:10;94912.31;;;17.45;40.73
6134;BME280;3098;42.678;23.364;2022-09-21T11:35:01;94892.81;;;17.48;40.24
6134;BME280;3098;42.678;23.364;2022-09-21T11:37:49;94946.66;;;18.51;40.29
6134;BME280;3098;42.678;23.364;2022-09-21T11:40:36;94942.72;;;18.26;40.88
6134;BME280;3098;42.678;23.364;2022-09-21T11:43:17;94943.06;;;18.44;41.41
6134;BME280;3098;42.678;23.364;2022-09-21T11:45:55;94937.06;;;18.31;41.54
6134;BME280;3098;42.678;23.364;2022-09-21T11:48:37;94975.56;;;18.19;42.69
6134;BME280;3098;42.678;23.364;2022-09-21T11:51:20;94960.00;;;17.05;51.63
6134;BME280;3098;42.678;23.364;2022-09-21T11:54:17;94970.53;;;16.39;55.56
6134;BME280;3098;42.678;23.364;2022-09-21T11:56:49;94926.81;;;15.51;59.42
6134;BME280;3098;42.678;23.364;2022-09-21T11:59:44;94940.25;;;14.46;63.95
6134;BME280;3098;42.678;23.364;2022-09-21T12:02:32;94972.84;;;14.52;65.32
6134;BME280;3098;42.678;23.364;2022-09-21T12:05:08;94953.97;;;14.24;69.00
6134;BME280;3098;42.678;23.364;2022-09-21T12:07:54;94947.50;;;13.92;69.21
6134;BME280;3098;42.678;23.364;2022-09-21T12:10:38;94982.75;;;13.77;69.36
6134;BME280;3098;42.678;23.364;2022-09-21T12:13:11;94955.44;;;13.59;70.24
6134;BME280;3098;42.678;23.364;2022-09-21T12:15:46;94988.28;;;13.72;72.34
6134;BME280;3098;42.678;23.364;2022-09-21T12:18:23;94956.78;;;13.24;75.07
6134;BME280;3098;42.678;23.364;2022-09-21T12:20:58;94899.94;;;12.91;76.46
6134;BME280;3098;42.678;23.364;2022-09-21T12:23:38;94941.91;;;12.85;79.39
6134;BME280;3098;42.678;23.364;2022-09-21T12:26:07;94996.34;;;12.96;77.71
6134;BME280;3098;42.678;23.364;2022-09-21T12:28:40;94971.88;;;12.74;77.95
6134;BME280;3098;42.678;23.364;2022-09-21T12:31:14;95005.19;;;12.80;78.51
6134;BME280;3098;42.678;23.364;2022-09-21T12:33:49;94966.50;;;12.82;78.73
6134;BME280;3098;42.678;23.364;2022-09-21T12:36:20;94902.88;;;12.14;79.44
6134;BME280;3098;42.678;23.364;2022-09-21T12:38:56;94985.00;;;12.79;79.55
6134;BME280;3098;42.678;23.364;2022-09-21T12:41:32;94882.53;;;12.18;78.17
6134;BME280;3098;42.678;23.364;2022-09-21T12:44:11;94982.19;;;12.75;76.50
6134;BME280;3098;42.678;23.364;2022-09-21T12:46:45;94939.19;;;12.64;76.59
6134;BME280;3098;42.678;23.364;2022-09-21T12:49:17;94915.88;;;12.61;74.59
6134;BME280;3098;42.678;23.364;2022-09-21T12:51:49;94946.50;;;13.14;74.58
6134;BME280;3098;42.678;23.364;2022-09-21T12:54:27;94969.75;;;13.75;70.91
6134;BME280;3098;42.678;23.364;2022-09-21T12:57:08;94943.13;;;13.25;71.10
6134;BME280;3098;42.678;23.364;2022-09-21T12:59:41;94949.31;;;13.38;70.77
6134;BME280;3098;42.678;23.364;2022-09-21T13:02:15;94974.56;;;13.32;70.62
6134;BME280;3098;42.678;23.364;2022-09-21T13:04:54;94961.53;;;13.39;71.48
6134;BME280;3098;42.678;23.364;2022-09-21T13:07:42;94942.31;;;13.54;70.87
6134;BME280;3098;42.678;23.364;2022-09-21T13:10:18;94954.28;;;13.69;71.33
6134;BME280;3098;42.678;23.364;2022-09-21T13:12:51;94928.59;;;13.64;70.09
6134;BME280;3098;42.678;23.364;2022-09-21T13:15:23;94948.03;;;13.65;69.97
6134;BME280;3098;42.678;23.364;2022-09-21T13:17:59;94830.13;;;12.56;67.98
6134;BME280;3098;42.678;23.364;2022-09-21T13:20:36;94938.56;;;13.26;68.20
6134;BME280;3098;42.678;23.364;2022-09-21T13:23:04;94965.94;;;13.35;67.45
6134;BME280;3098;42.678;23.364;2022-09-21T13:25:33;94889.97;;;13.08;67.09
6134;BME280;3098;42.678;23.364;2022-09-21T13:28:05;94944.44;;;13.61;67.56
6134;BME280;3098;42.678;23.364;2022-09-21T13:30:46;94957.25;;;13.88;64.60
6134;BME280;3098;42.678;23.364;2022-09-21T13:33:31;94946.56;;;13.88;62.42
6134;BME280;3098;42.678;23.364;2022-09-21T13:36:10;94926.13;;;14.13;61.32
6134;BME280;3098;42.678;23.364;2022-09-21T13:39:15;94949.66;;;14.64;59.03